sensor_id;sensor_type;location;lat;lon;timestamp;temperature;humidity
59067;DHT22;44854;50.838;4.438;2023-04-03T04:03:24;3.60;99.90
59067;DHT22;44854;50.838;4.438;2023-04-03T04:05:50;3.60;99.90
59067;DHT22;44854;50.838;4.438;2023-04-03T04:08:15;3.60;99.90
59067;DHT22;44854;50.838;4.438;2023-04-03T04:10:41;3.50;99.90
59067;DHT22;44854;50.838;4.438;2023-04-03T04:13:07;3.50;99.90
59067;DHT22;44854;50.838;4.438;2023-04-03T04:15:32;3.50;99.90
59067;DHT22;44854;50.838;4.438;2023-04-03T04:17:58;3.50;99.90
59067;DHT22;44854;50.838;4.438;2023-04-03T04:20:23;3.40;99.90
59067;DHT22;44854;50.838;4.438;2023-04-03T04:22:49;3.50;99.90
59067;DHT22;44854;50.838;4.438;2023-04-03T04:25:14;3.40;99.90
59067;DHT22;44854;50.838;4.438;2023-04-03T04:27:40;3.40;99.90
59067;DHT22;44854;50.838;4.438;2023-04-03T04:30:09;3.30;99.90
59067;DHT22;44854;50.838;4.438;2023-04-03T04:32:35;3.40;99.90
59067;DHT22;44854;50.838;4.438;2023-04-03T04:35:01;3.40;99.90
59067;DHT22;44854;50.838;4.438;2023-04-03T04:37:26;3.40;99.90
59067;DHT22;44854;50.838;4.438;2023-04-03T04:39:52;3.50;99.90
59067;DHT22;44854;50.838;4.438;2023-04-03T04:42:17;3.40;99.90
59067;DHT22;44854;50.838;4.438;2023-04-03T04:44:43;3.50;99.90
59067;DHT22;44854;50.838;4.438;2023-04-03T04:47:09;3.50;99.90
59067;DHT22;44854;50.838;4.438;2023-04-03T04:49:34;3.50;99.90
59067;DHT22;44854;50.838;4.438;2023-04-03T04:52:00;3.50;99.90
59067;DHT22;44854;50.838;4.438;2023-04-03T04:54:25;3.50;99.90
59067;DHT22;44854;50.838;4.438;2023-04-03T04:56:51;3.40;99.90
59067;DHT22;44854;50.838;4.438;2023-04-03T04:59:16;3.40;99.90
59067;DHT22;44854;50.838;4.438;2023-04-03T05:01:42;3.30;99.90
59067;DHT22;44854;50.838;4.438;2023-04-03T05:04:08;3.40;99.90
59067;DHT22;44854;50.838;4.438;2023-04-03T05:06:34;3.30;99.90
59067;DHT22;44854;50.838;4.438;2023-04-03T05:09:00;3.40;99.90
59067;DHT22;44854;50.838;4.438;2023-04-03T05:11:26;3.50;99.90
59067;DHT22;44854;50.838;4.438;2023-04-03T05:13:52;3.50;99.90
59067;DHT22;44854;50.838;4.438;2023-04-03T05:16:17;3.40;99.90
59067;DHT22;44854;50.838;4.438;2023-04-03T05:18:43;3.40;99.90
59067;DHT22;44854;50.838;4.438;2023-04-03T05:21:08;3.50;99.90
59067;DHT22;44854;50.838;4.438;2023-04-03T05:23:34;3.40;99.90
59067;DHT22;44854;50.838;4.438;2023-04-03T05:25:59;3.40;99.90
59067;DHT22;44854;50.838;4.438;2023-04-03T05:28:25;3.50;99.90
59067;DHT22;44854;50.838;4.438;2023-04-03T05:30:55;3.50;99.90
59067;DHT22;44854;50.838;4.438;2023-04-03T05:33:20;3.50;99.90
59067;DHT22;44854;50.838;4.438;2023-04-03T05:35:46;3.50;99.90
59067;DHT22;44854;50.838;4.438;2023-04-03T05:38:11;3.50;99.90
59067;DHT22;44854;50.838;4.438;2023-04-03T05:40:37;3.50;99.90
59067;DHT22;44854;50.838;4.438;2023-04-03T05:43:03;3.60;99.90
59067;DHT22;44854;50.838;4.438;2023-04-03T05:45:28;3.60;99.90
59067;DHT22;44854;50.838;4.438;2023-04-03T05:47:54;3.60;99.90
59067;DHT22;44854;50.838;4.438;2023-04-03T05:50:19;3.60;99.90
59067;DHT22;44854;50.838;4.438;2023-04-03T05:52:45;3.60;99.90
59067;DHT22;44854;50.838;4.438;2023-04-03T05:55:13;3.60;99.90
59067;DHT22;44854;50.838;4.438;2023-04-03T05:57:38;3.60;99.90
59067;DHT22;44854;50.838;4.438;2023-04-03T06:00:05;3.60;99.90
59067;DHT22;44854;50.838;4.438;2023-04-03T06:02:31;3.70;99.90
59067;DHT22;44854;50.838;4.438;2023-04-03T06:04:57;3.70;99.90
59067;DHT22;44854;50.838;4.438;2023-04-03T06:07:24;3.70;99.90
59067;DHT22;44854;50.838;4.438;2023-04-03T06:09:53;3.70;99.90
59067;DHT22;44854;50.838;4.438;2023-04-03T06:12:19;3.80;99.90
59067;DHT22;44854;50.838;4.438;2023-04-03T06:14:44;3.80;99.90
59067;DHT22;44854;50.838;4.438;2023-04-03T06:17:10;3.80;99.90
59067;DHT22;44854;50.838;4.438;2023-04-03T06:19:37;3.90;99.90
59067;DHT22;44854;50.838;4.438;2023-04-03T06:22:03;4.00;99.90
59067;DHT22;44854;50.838;4.438;2023-04-03T06:24:28;4.10;99.90
59067;DHT22;44854;50.838;4.438;2023-04-03T06:26:54;4.00;99.90
59067;DHT22;44854;50.838;4.438;2023-04-03T06:29:20;4.00;99.90
59067;DHT22;44854;50.838;4.438;2023-04-03T06:31:45;4.20;99.90
59067;DHT22;44854;50.838;4.438;2023-04-03T06:34:11;4.10;99.90
59067;DHT22;44854;50.838;4.438;2023-04-03T06:36:37;4.30;99.90
59067;DHT22;44854;50.838;4.438;2023-04-03T06:39:03;4.30;99.90
59067;DHT22;44854;50.838;4.438;2023-04-03T06:41:29;4.40;99.90
59067;DHT22;44854;50.838;4.438;2023-04-03T06:43:55;4.30;99.90
59067;DHT22;44854;50.838;4.438;2023-04-03T06:46:24;4.40;99.90
59067;DHT22;44854;50.838;4.438;2023-04-03T06:48:50;4.60;99.90
59067;DHT22;44854;50.838;4.438;2023-04-03T06:53:45;4.60;99.90
59067;DHT22;44854;50.838;4.438;2023-04-03T06:56:11;4.60;99.90
59067;DHT22;44854;50.838;4.438;2023-04-03T06:58:36;4.60;99.90
59067;DHT22;44854;50.838;4.438;2023-04-03T07:01:02;4.70;99.90
59067;DHT22;44854;50.838;4.438;2023-04-03T07:03:28;4.70;99.90
59067;DHT22;44854;50.838;4.438;2023-04-03T07:05:53;4.60;99.90
59067;DHT22;44854;50.838;4.438;2023-04-03T07:08:19;4.70;99.90
59067;DHT22;44854;50.838;4.438;2023-04-03T07:10:44;4.90;99.90
59067;DHT22;44854;50.838;4.438;2023-04-03T07:13:10;5.00;99.90
59067;DHT22;44854;50.838;4.438;2023-04-03T07:15:36;5.00;99.90
59067;DHT22;44854;50.838;4.438;2023-04-03T07:18:02;5.00;99.90
59067;DHT22;44854;50.838;4.438;2023-04-03T07:20:27;5.00;99.90
59067;DHT22;44854;50.838;4.438;2023-04-03T07:22:53;5.10;99.90
59067;DHT22;44854;50.838;4.438;2023-04-03T07:25:18;5.20;99.90
59067;DHT22;44854;50.838;4.438;2023-04-03T07:27:44;5.40;99.90
59067;DHT22;44854;50.838;4.438;2023-04-03T07:30:10;5.30;99.90
59067;DHT22;44854;50.838;4.438;2023-04-03T07:32:36;5.20;99.90
59067;DHT22;44854;50.838;4.438;2023-04-03T07:35:02;5.40;99.90
59067;DHT22;44854;50.838;4.438;2023-04-03T07:37:27;5.50;99.90
59067;DHT22;44854;50.838;4.438;2023-04-03T07:39:53;5.50;99.90
59067;DHT22;44854;50.838;4.438;2023-04-03T07:42:20;5.50;99.90
59067;DHT22;44854;50.838;4.438;2023-04-03T07:44:45;5.60;99.90
59067;DHT22;44854;50.838;4.438;2023-04-03T07:47:11;5.60;99.90
59067;DHT22;44854;50.838;4.438;2023-04-03T07:49:38;5.80;99.90
59067;DHT22;44854;50.838;4.438;2023-04-03T07:52:06;5.90;99.90
59067;DHT22;44854;50.838;4.438;2023-04-03T07:54:32;5.90;99.90
59067;DHT22;44854;50.838;4.438;2023-04-03T07:56:58;6.00;99.90
59067;DHT22;44854;50.838;4.438;2023-04-03T07:59:23;6.00;99.90
59067;DHT22;44854;50.838;4.438;2023-04-03T08:01:49;6.10;99.90
59067;DHT22;44854;50.838;4.438;2023-04-03T08:04:14;6.40;99.90
59067;DHT22;44854;50.838;4.438;2023-04-03T08:06:40;6.50;99.90
59067;DHT22;44854;50.838;4.438;2023-04-03T08:09:05;6.60;99.90
59067;DHT22;44854;50.838;4.438;2023-04-03T08:11:31;6.80;99.90
59067;DHT22;44854;50.838;4.438;2023-04-03T08:13:57;6.90;99.90
59067;DHT22;44854;50.838;4.438;2023-04-03T08:16:23;6.90;99.90
59067;DHT22;44854;50.838;4.438;2023-04-03T08:18:50;7.10;99.90
59067;DHT22;44854;50.838;4.438;2023-04-03T08:21:16;7.20;99.90
59067;DHT22;44854;50.838;4.438;2023-04-03T08:23:42;7.20;99.90
59067;DHT22;44854;50.838;4.438;2023-04-03T08:26:09;7.40;99.90
59067;DHT22;44854;50.838;4.438;2023-04-03T08:28:34;7.50;99.90
59067;DHT22;44854;50.838;4.438;2023-04-03T08:31:07;7.60;99.90
59067;DHT22;44854;50.838;4.438;2023-04-03T08:33:36;7.50;99.90
59067;DHT22;44854;50.838;4.438;2023-04-03T08:36:03;7.70;99.90
59067;DHT22;44854;50.838;4.438;2023-04-03T08:38:28;7.50;99.90
59067;DHT22;44854;50.838;4.438;2023-04-03T08:43:46;7.60;99.90
59067;DHT22;44854;50.838;4.438;2023-04-03T08:46:17;7.60;99.90
59067;DHT22;44854;50.838;4.438;2023-04-03T08:48:45;7.70;99.90
59067;DHT22;44854;50.838;4.438;2023-04-03T08:51:14;7.90;99.90
59067;DHT22;44854;50.838;4.438;2023-04-03T08:53:42;8.10;99.90
59067;DHT22;44854;50.838;4.438;2023-04-03T08:56:09;8.10;99.90
59067;DHT22;44854;50.838;4.438;2023-04-03T08:58:42;8.20;99.90
59067;DHT22;44854;50.838;4.438;2023-04-03T09:01:20;8.30;99.90
59067;DHT22;44854;50.838;4.438;2023-04-03T09:03:46;8.30;99.90
59067;DHT22;44854;50.838;4.438;2023-04-03T09:06:23;8.40;99.90
59067;DHT22;44854;50.838;4.438;2023-04-03T09:11:19;8.30;99.90
59067;DHT22;44854;50.838;4.438;2023-04-03T09:19:21;8.70;99.90
59067;DHT22;44854;50.838;4.438;2023-04-03T09:21:50;8.80;99.90
59067;DHT22;44854;50.838;4.438;2023-04-03T09:24:16;8.80;99.90
59067;DHT22;44854;50.838;4.438;2023-04-03T09:29:14;8.90;99.90
59067;DHT22;44854;50.838;4.438;2023-04-03T09:31:40;9.10;99.90
59067;DHT22;44854;50.838;4.438;2023-04-03T09:34:11;8.80;99.90
59067;DHT22;44854;50.838;4.438;2023-04-03T09:36:46;8.90;99.90
59067;DHT22;44854;50.838;4.438;2023-04-03T09:39:14;9.10;99.90
59067;DHT22;44854;50.838;4.438;2023-04-03T09:41:41;9.30;99.90
59067;DHT22;44854;50.838;4.438;2023-04-03T09:49:42;9.40;99.90
59067;DHT22;44854;50.838;4.438;2023-04-03T09:52:18;9.40;99.90
59067;DHT22;44854;50.838;4.438;2023-04-03T09:54:43;9.50;99.90
59067;DHT22;44854;50.838;4.438;2023-04-03T09:57:10;9.20;99.90
59067;DHT22;44854;50.838;4.438;2023-04-03T09:59:38;9.40;99.90
59067;DHT22;44854;50.838;4.438;2023-04-03T10:04:41;9.60;99.90
59067;DHT22;44854;50.838;4.438;2023-04-03T10:12:40;10.00;99.90
59067;DHT22;44854;50.838;4.438;2023-04-03T10:15:12;9.60;99.90
59067;DHT22;44854;50.838;4.438;2023-04-03T10:22:41;10.00;99.90
59067;DHT22;44854;50.838;4.438;2023-04-03T10:27:42;10.00;99.90
59067;DHT22;44854;50.838;4.438;2023-04-03T10:35:28;10.30;99.90
59067;DHT22;44854;50.838;4.438;2023-04-03T10:48:52;10.80;99.90
59067;DHT22;44854;50.838;4.438;2023-04-03T10:51:41;10.90;99.90
59067;DHT22;44854;50.838;4.438;2023-04-03T10:54:13;10.90;99.90
59067;DHT22;44854;50.838;4.438;2023-04-03T10:56:42;10.80;99.40
59067;DHT22;44854;50.838;4.438;2023-04-03T11:01:41;10.80;99.70
59067;DHT22;44854;50.838;4.438;2023-04-03T11:04:08;10.80;99.20
59067;DHT22;44854;50.838;4.438;2023-04-03T11:06:37;10.90;98.30
59067;DHT22;44854;50.838;4.438;2023-04-03T11:09:09;10.80;99.00
59067;DHT22;44854;50.838;4.438;2023-04-03T11:11:39;10.90;98.80
59067;DHT22;44854;50.838;4.438;2023-04-03T11:14:09;10.80;97.00
59067;DHT22;44854;50.838;4.438;2023-04-03T11:16:40;11.00;97.90
59067;DHT22;44854;50.838;4.438;2023-04-03T11:24:34;11.60;95.70
59067;DHT22;44854;50.838;4.438;2023-04-03T11:27:01;11.30;94.80
59067;DHT22;44854;50.838;4.438;2023-04-03T11:29:31;11.20;95.20
59067;DHT22;44854;50.838;4.438;2023-04-03T11:34:46;11.50;96.00
59067;DHT22;44854;50.838;4.438;2023-04-03T11:37:15;11.50;95.30
59067;DHT22;44854;50.838;4.438;2023-04-03T11:39:46;11.50;95.30
59067;DHT22;44854;50.838;4.438;2023-04-03T11:42:14;11.60;95.00
59067;DHT22;44854;50.838;4.438;2023-04-03T11:44:40;11.60;94.30
59067;DHT22;44854;50.838;4.438;2023-04-03T11:47:09;11.50;94.70
59067;DHT22;44854;50.838;4.438;2023-04-03T11:57:44;11.50;94.50
59067;DHT22;44854;50.838;4.438;2023-04-03T12:02:54;11.50;92.50
59067;DHT22;44854;50.838;4.438;2023-04-03T12:05:27;11.50;92.20
59067;DHT22;44854;50.838;4.438;2023-04-03T12:10:38;11.50;92.10
59067;DHT22;44854;50.838;4.438;2023-04-03T12:13:12;11.30;92.90
59067;DHT22;44854;50.838;4.438;2023-04-03T12:15:46;11.50;93.10
59067;DHT22;44854;50.838;4.438;2023-04-03T12:20:57;11.70;91.60
59067;DHT22;44854;50.838;4.438;2023-04-03T12:23:30;11.90;90.00
59067;DHT22;44854;50.838;4.438;2023-04-03T12:26:00;12.00;89.30
59067;DHT22;44854;50.838;4.438;2023-04-03T12:28:26;12.00;87.40
59067;DHT22;44854;50.838;4.438;2023-04-03T12:30:52;12.00;86.70
59067;DHT22;44854;50.838;4.438;2023-04-03T12:33:38;11.90;84.60
59067;DHT22;44854;50.838;4.438;2023-04-03T12:36:18;11.80;85.40
59067;DHT22;44854;50.838;4.438;2023-04-03T12:44:00;12.30;84.20
59067;DHT22;44854;50.838;4.438;2023-04-03T12:46:39;12.30;81.80
59067;DHT22;44854;50.838;4.438;2023-04-03T12:49:41;12.40;82.20
59067;DHT22;44854;50.838;4.438;2023-04-03T12:51:59;12.40;82.00
59067;DHT22;44854;50.838;4.438;2023-04-03T12:54:40;12.30;78.40
59067;DHT22;44854;50.838;4.438;2023-04-03T12:57:15;12.10;78.30
59067;DHT22;44854;50.838;4.438;2023-04-03T12:59:41;12.00;79.70
59067;DHT22;44854;50.838;4.438;2023-04-03T13:02:28;12.10;79.90
59067;DHT22;44854;50.838;4.438;2023-04-03T13:04:58;11.90;78.70
59067;DHT22;44854;50.838;4.438;2023-04-03T13:07:29;12.20;78.50
59067;DHT22;44854;50.838;4.438;2023-04-03T13:09:57;12.20;78.20
59067;DHT22;44854;50.838;4.438;2023-04-03T13:12:24;12.30;78.10
59067;DHT22;44854;50.838;4.438;2023-04-03T13:14:54;12.20;77.10
59067;DHT22;44854;50.838;4.438;2023-04-03T13:17:19;12.50;76.20
59067;DHT22;44854;50.838;4.438;2023-04-03T13:19:46;12.60;74.40
59067;DHT22;44854;50.838;4.438;2023-04-03T13:22:35;12.40;75.70
59067;DHT22;44854;50.838;4.438;2023-04-03T13:25:05;12.10;76.00
59067;DHT22;44854;50.838;4.438;2023-04-03T13:27:31;12.30;73.80
59067;DHT22;44854;50.838;4.438;2023-04-03T13:29:58;12.20;73.10
59067;DHT22;44854;50.838;4.438;2023-04-03T13:32:25;12.10;74.20
59067;DHT22;44854;50.838;4.438;2023-04-03T13:34:51;12.20;73.90
59067;DHT22;44854;50.838;4.438;2023-04-03T13:37:30;12.40;72.50
59067;DHT22;44854;50.838;4.438;2023-04-03T13:42:32;12.10;71.30
59067;DHT22;44854;50.838;4.438;2023-04-03T13:47:42;11.90;74.40
59067;DHT22;44854;50.838;4.438;2023-04-03T13:52:43;11.80;74.10
59067;DHT22;44854;50.838;4.438;2023-04-03T13:55:25;11.80;75.20
59067;DHT22;44854;50.838;4.438;2023-04-03T13:58:01;12.10;74.70
59067;DHT22;44854;50.838;4.438;2023-04-03T14:00:29;12.30;74.30
59067;DHT22;44854;50.838;4.438;2023-04-03T14:02:55;12.30;74.50
59067;DHT22;44854;50.838;4.438;2023-04-03T14:05:21;12.50;74.90
59067;DHT22;44854;50.838;4.438;2023-04-03T14:07:48;12.60;75.00
59067;DHT22;44854;50.838;4.438;2023-04-03T14:10:14;12.60;75.50
59067;DHT22;44854;50.838;4.438;2023-04-03T14:12:39;12.70;75.90
59067;DHT22;44854;50.838;4.438;2023-04-03T14:17:43;12.90;74.70
59067;DHT22;44854;50.838;4.438;2023-04-03T14:20:16;12.90;73.00
59067;DHT22;44854;50.838;4.438;2023-04-03T14:22:42;12.60;72.00
59067;DHT22;44854;50.838;4.438;2023-04-03T14:25:07;12.40;73.00
59067;DHT22;44854;50.838;4.438;2023-04-03T14:27:37;12.50;75.50
59067;DHT22;44854;50.838;4.438;2023-04-03T14:30:04;12.20;73.40
59067;DHT22;44854;50.838;4.438;2023-04-03T14:32:31;12.20;75.50
59067;DHT22;44854;50.838;4.438;2023-04-03T14:34:56;12.10;74.90
59067;DHT22;44854;50.838;4.438;2023-04-03T14:37:24;12.20;73.60
59067;DHT22;44854;50.838;4.438;2023-04-03T14:39:51;12.20;73.40
59067;DHT22;44854;50.838;4.438;2023-04-03T14:42:22;12.40;73.90
59067;DHT22;44854;50.838;4.438;2023-04-03T14:44:47;12.40;74.60
59067;DHT22;44854;50.838;4.438;2023-04-03T14:47:13;12.50;75.50
59067;DHT22;44854;50.838;4.438;2023-04-03T14:49:40;12.50;72.50
59067;DHT22;44854;50.838;4.438;2023-04-03T14:52:06;12.60;73.10
59067;DHT22;44854;50.838;4.438;2023-04-03T14:54:31;12.70;74.80
59067;DHT22;44854;50.838;4.438;2023-04-03T14:56:58;12.80;73.50
59067;DHT22;44854;50.838;4.438;2023-04-03T14:59:30;12.80;72.30
59067;DHT22;44854;50.838;4.438;2023-04-03T15:01:57;12.90;72.60
59067;DHT22;44854;50.838;4.438;2023-04-03T15:04:22;13.00;71.60
59067;DHT22;44854;50.838;4.438;2023-04-03T15:06:48;12.70;69.80
59067;DHT22;44854;50.838;4.438;2023-04-03T15:11:43;12.50;70.30
59067;DHT22;44854;50.838;4.438;2023-04-03T15:14:09;12.30;68.70
59067;DHT22;44854;50.838;4.438;2023-04-03T15:16:34;12.30;69.30
59067;DHT22;44854;50.838;4.438;2023-04-03T15:19:00;12.30;69.00
59067;DHT22;44854;50.838;4.438;2023-04-03T15:21:25;12.40;68.70
59067;DHT22;44854;50.838;4.438;2023-04-03T15:23:51;12.40;70.40
59067;DHT22;44854;50.838;4.438;2023-04-03T15:26:16;12.30;70.60
59067;DHT22;44854;50.838;4.438;2023-04-03T15:28:42;12.20;70.40
59067;DHT22;44854;50.838;4.438;2023-04-03T15:31:09;12.20;69.50
59067;DHT22;44854;50.838;4.438;2023-04-03T15:33:35;12.30;70.40
59067;DHT22;44854;50.838;4.438;2023-04-03T15:36:01;12.30;68.30
59067;DHT22;44854;50.838;4.438;2023-04-03T15:38:26;12.30;69.50
59067;DHT22;44854;50.838;4.438;2023-04-03T15:40:53;12.40;70.90
59067;DHT22;44854;50.838;4.438;2023-04-03T15:43:18;12.10;70.80
59067;DHT22;44854;50.838;4.438;2023-04-03T15:45:44;12.10;70.20
59067;DHT22;44854;50.838;4.438;2023-04-03T15:48:10;12.10;71.10
59067;DHT22;44854;50.838;4.438;2023-04-03T15:50:36;12.20;71.80
59067;DHT22;44854;50.838;4.438;2023-04-03T15:53:02;12.00;73.20
59067;DHT22;44854;50.838;4.438;2023-04-03T15:55:29;11.90;73.30
59067;DHT22;44854;50.838;4.438;2023-04-03T15:57:55;11.90;73.40
59067;DHT22;44854;50.838;4.438;2023-04-03T16:00:21;12.00;73.90
59067;DHT22;44854;50.838;4.438;2023-04-03T16:02:48;11.90;75.50
59067;DHT22;44854;50.838;4.438;2023-04-03T16:05:15;11.90;75.50
59067;DHT22;44854;50.838;4.438;2023-04-03T16:07:42;12.10;76.30
59067;DHT22;44854;50.838;4.438;2023-04-03T16:10:09;12.10;75.40
59067;DHT22;44854;50.838;4.438;2023-04-03T16:12:35;12.00;74.10
59067;DHT22;44854;50.838;4.438;2023-04-03T16:15:01;11.90;75.40
59067;DHT22;44854;50.838;4.438;2023-04-03T16:17:27;11.80;75.40
59067;DHT22;44854;50.838;4.438;2023-04-03T16:19:53;11.70;77.30
59067;DHT22;44854;50.838;4.438;2023-04-03T16:22:19;11.80;78.20
59067;DHT22;44854;50.838;4.438;2023-04-03T16:24:45;11.80;78.10
59067;DHT22;44854;50.838;4.438;2023-04-03T16:27:11;11.80;79.10
59067;DHT22;44854;50.838;4.438;2023-04-03T16:29:36;12.00;79.00
59067;DHT22;44854;50.838;4.438;2023-04-03T16:32:02;12.10;78.60
59067;DHT22;44854;50.838;4.438;2023-04-03T16:34:27;12.00;78.30
59067;DHT22;44854;50.838;4.438;2023-04-03T16:36:55;11.90;78.10
59067;DHT22;44854;50.838;4.438;2023-04-03T16:39:21;11.90;79.30
59067;DHT22;44854;50.838;4.438;2023-04-03T16:41:46;11.90;79.40
59067;DHT22;44854;50.838;4.438;2023-04-03T16:44:12;11.90;79.40
59067;DHT22;44854;50.838;4.438;2023-04-03T16:46:38;11.80;80.00
59067;DHT22;44854;50.838;4.438;2023-04-03T16:49:04;11.80;80.30
59067;DHT22;44854;50.838;4.438;2023-04-03T16:51:30;11.70;81.10
59067;DHT22;44854;50.838;4.438;2023-04-03T16:53:57;11.70;80.50
59067;DHT22;44854;50.838;4.438;2023-04-03T16:56:22;11.70;79.30
59067;DHT22;44854;50.838;4.438;2023-04-03T16:58:48;11.60;79.40
59067;DHT22;44854;50.838;4.438;2023-04-03T17:01:14;11.50;79.70
59067;DHT22;44854;50.838;4.438;2023-04-03T17:03:40;11.50;80.50
59067;DHT22;44854;50.838;4.438;2023-04-03T17:06:06;11.40;80.90
59067;DHT22;44854;50.838;4.438;2023-04-03T17:08:31;11.50;81.20
59067;DHT22;44854;50.838;4.438;2023-04-03T17:10:57;11.40;81.00
59067;DHT22;44854;50.838;4.438;2023-04-03T17:13:23;11.40;81.40
59067;DHT22;44854;50.838;4.438;2023-04-03T17:15:48;11.50;81.50
59067;DHT22;44854;50.838;4.438;2023-04-03T17:18:14;11.30;81.50
59067;DHT22;44854;50.838;4.438;2023-04-03T17:20:39;11.40;82.00
59067;DHT22;44854;50.838;4.438;2023-04-03T17:23:05;11.40;81.50
59067;DHT22;44854;50.838;4.438;2023-04-03T17:25:31;11.30;81.20
59067;DHT22;44854;50.838;4.438;2023-04-03T17:27:56;11.40;81.90
59067;DHT22;44854;50.838;4.438;2023-04-03T17:30:22;11.40;82.00
59067;DHT22;44854;50.838;4.438;2023-04-03T17:32:48;11.20;82.70
59067;DHT22;44854;50.838;4.438;2023-04-03T17:35:14;11.20;82.40
59067;DHT22;44854;50.838;4.438;2023-04-03T17:37:39;11.20;82.60
59067;DHT22;44854;50.838;4.438;2023-04-03T17:40:05;11.20;82.40
59067;DHT22;44854;50.838;4.438;2023-04-03T17:42:31;11.20;82.00
59067;DHT22;44854;50.838;4.438;2023-04-03T17:44:57;10.90;81.50
59067;DHT22;44854;50.838;4.438;2023-04-03T17:47:23;10.70;83.10
59067;DHT22;44854;50.838;4.438;2023-04-03T17:49:50;10.60;82.90
59067;DHT22;44854;50.838;4.438;2023-04-03T17:52:15;10.60;83.50
59067;DHT22;44854;50.838;4.438;2023-04-03T17:54:41;10.60;83.50
59067;DHT22;44854;50.838;4.438;2023-04-03T17:57:07;10.40;84.10
59067;DHT22;44854;50.838;4.438;2023-04-03T17:59:33;10.40;84.60
59067;DHT22;44854;50.838;4.438;2023-04-03T18:01:58;10.30;85.30
59067;DHT22;44854;50.838;4.438;2023-04-03T18:04:24;10.20;85.50
59067;DHT22;44854;50.838;4.438;2023-04-03T18:06:50;10.10;85.30
59067;DHT22;44854;50.838;4.438;2023-04-03T18:09:17;10.00;85.20
59067;DHT22;44854;50.838;4.438;2023-04-03T18:11:44;9.90;85.60
59067;DHT22;44854;50.838;4.438;2023-04-03T18:14:11;9.80;85.70
59067;DHT22;44854;50.838;4.438;2023-04-03T18:16:37;9.80;86.10
59067;DHT22;44854;50.838;4.438;2023-04-03T18:19:03;9.90;86.30
59067;DHT22;44854;50.838;4.438;2023-04-03T18:21:29;9.90;86.10
59067;DHT22;44854;50.838;4.438;2023-04-03T18:23:54;9.80;86.20
59067;DHT22;44854;50.838;4.438;2023-04-03T18:26:21;9.70;86.10
59067;DHT22;44854;50.838;4.438;2023-04-03T18:28:49;9.60;86.70
59067;DHT22;44854;50.838;4.438;2023-04-03T18:31:17;9.60;86.40
59067;DHT22;44854;50.838;4.438;2023-04-03T18:33:43;9.50;86.40
59067;DHT22;44854;50.838;4.438;2023-04-03T18:36:08;9.40;87.20
59067;DHT22;44854;50.838;4.438;2023-04-03T18:38:34;9.40;87.00
59067;DHT22;44854;50.838;4.438;2023-04-03T18:41:00;9.30;87.30
59067;DHT22;44854;50.838;4.438;2023-04-03T18:43:26;9.30;87.90
59067;DHT22;44854;50.838;4.438;2023-04-03T18:45:52;9.20;88.40
59067;DHT22;44854;50.838;4.438;2023-04-03T18:48:18;9.20;88.10
59067;DHT22;44854;50.838;4.438;2023-04-03T18:50:45;9.20;88.40
59067;DHT22;44854;50.838;4.438;2023-04-03T18:53:11;9.30;88.60
59067;DHT22;44854;50.838;4.438;2023-04-03T18:55:36;9.10;88.30
59067;DHT22;44854;50.838;4.438;2023-04-03T18:58:02;9.20;88.50
59067;DHT22;44854;50.838;4.438;2023-04-03T19:00:27;9.10;89.10
59067;DHT22;44854;50.838;4.438;2023-04-03T19:02:53;9.00;88.20
59067;DHT22;44854;50.838;4.438;2023-04-03T19:05:19;8.90;88.70
59067;DHT22;44854;50.838;4.438;2023-04-03T19:07:45;8.80;89.40
59067;DHT22;44854;50.838;4.438;2023-04-03T19:10:11;8.80;89.20
59067;DHT22;44854;50.838;4.438;2023-04-03T19:12:42;8.80;89.50
59067;DHT22;44854;50.838;4.438;2023-04-03T19:15:08;8.80;90.00
59067;DHT22;44854;50.838;4.438;2023-04-03T19:17:33;8.90;89.70
59067;DHT22;44854;50.838;4.438;2023-04-03T19:19:59;8.90;89.40
59067;DHT22;44854;50.838;4.438;2023-04-03T19:22:25;8.90;90.00
59067;DHT22;44854;50.838;4.438;2023-04-03T19:24:50;8.90;90.10
59067;DHT22;44854;50.838;4.438;2023-04-03T19:27:16;8.80;90.30
59067;DHT22;44854;50.838;4.438;2023-04-03T19:29:41;8.80;90.50
59067;DHT22;44854;50.838;4.438;2023-04-03T19:32:07;8.80;90.70
59067;DHT22;44854;50.838;4.438;2023-04-03T19:34:32;8.70;90.80
59067;DHT22;44854;50.838;4.438;2023-04-03T19:36:58;8.70;90.80
59067;DHT22;44854;50.838;4.438;2023-04-03T19:39:24;8.60;91.00
59067;DHT22;44854;50.838;4.438;2023-04-03T19:41:50;8.60;91.20
59067;DHT22;44854;50.838;4.438;2023-04-03T19:44:16;8.60;91.00
59067;DHT22;44854;50.838;4.438;2023-04-03T19:46:41;8.50;91.50
59067;DHT22;44854;50.838;4.438;2023-04-03T19:49:07;8.40;91.50
59067;DHT22;44854;50.838;4.438;2023-04-03T19:51:33;8.50;91.80
59067;DHT22;44854;50.838;4.438;2023-04-03T19:53:58;8.50;92.00
59067;DHT22;44854;50.838;4.438;2023-04-03T19:56:24;8.50;92.10
59067;DHT22;44854;50.838;4.438;2023-04-03T19:58:50;8.50;92.10
59067;DHT22;44854;50.838;4.438;2023-04-03T20:01:19;8.40;92.10
59067;DHT22;44854;50.838;4.438;2023-04-03T20:03:45;8.40;91.90
59067;DHT22;44854;50.838;4.438;2023-04-03T20:06:12;8.20;92.30
59067;DHT22;44854;50.838;4.438;2023-04-03T20:08:37;8.20;92.60
59067;DHT22;44854;50.838;4.438;2023-04-03T20:11:03;8.30;92.70
59067;DHT22;44854;50.838;4.438;2023-04-03T20:13:30;8.20;92.60
59067;DHT22;44854;50.838;4.438;2023-04-03T20:16:00;8.10;92.70
59067;DHT22;44854;50.838;4.438;2023-04-03T20:18:31;8.10;92.90
59067;DHT22;44854;50.838;4.438;2023-04-03T20:20:59;8.10;92.70
59067;DHT22;44854;50.838;4.438;2023-04-03T20:23:26;8.00;92.80
59067;DHT22;44854;50.838;4.438;2023-04-03T20:25:53;8.00;93.30
59067;DHT22;44854;50.838;4.438;2023-04-03T20:28:19;7.90;93.60
59067;DHT22;44854;50.838;4.438;2023-04-03T20:30:47;7.80;93.70
59067;DHT22;44854;50.838;4.438;2023-04-03T20:33:16;7.90;93.60
59067;DHT22;44854;50.838;4.438;2023-04-03T20:35:41;7.80;93.70
59067;DHT22;44854;50.838;4.438;2023-04-03T20:38:07;7.70;93.60
59067;DHT22;44854;50.838;4.438;2023-04-03T20:40:33;7.70;93.90
59067;DHT22;44854;50.838;4.438;2023-04-03T20:43:02;7.70;94.20
59067;DHT22;44854;50.838;4.438;2023-04-03T20:45:28;7.60;93.80
59067;DHT22;44854;50.838;4.438;2023-04-03T20:47:54;7.60;94.20
59067;DHT22;44854;50.838;4.438;2023-04-03T20:50:19;7.50;94.40
59067;DHT22;44854;50.838;4.438;2023-04-03T20:52:47;7.60;94.60
59067;DHT22;44854;50.838;4.438;2023-04-03T20:55:13;7.60;95.10
59067;DHT22;44854;50.838;4.438;2023-04-03T20:57:39;7.60;94.70
59067;DHT22;44854;50.838;4.438;2023-04-03T21:00:05;7.50;94.80
59067;DHT22;44854;50.838;4.438;2023-04-03T21:02:31;7.50;95.10
59067;DHT22;44854;50.838;4.438;2023-04-03T21:04:57;7.30;95.20
59067;DHT22;44854;50.838;4.438;2023-04-03T21:20:40;7.30;96.50
59067;DHT22;44854;50.838;4.438;2023-04-03T21:23:06;7.40;96.10
59067;DHT22;44854;50.838;4.438;2023-04-03T21:25:32;7.30;95.90
59067;DHT22;44854;50.838;4.438;2023-04-03T21:27:57;7.20;96.00
59067;DHT22;44854;50.838;4.438;2023-04-03T21:30:23;7.10;96.10
59067;DHT22;44854;50.838;4.438;2023-04-03T21:32:49;7.20;96.20